Airfield :
LOGIN :

Register | Disclaimer

   EN    FR    IT 

 










Legend :    VFR   Marginal VFR   IFR   Intensive IFR   Very Intensive IFR
Visi :
Ceiling :
>= 8 km
>= 3000ft
5 to 8 km
1000 to 3000 ft
1500m to 5 km
500 to 1000 ft
800 to 1500m
200 to 500 ft
< 800m
< 200 ft
Symbols :   Thunderstorms  Fog  Heavy snow  Heavy precipitations  Wind > 20 kt
SIGMETs :     Misc.  Thunderstorms  Icing  Turbulence  Mountain Waves  Volcanic Ashes






- Airport Elevation : 5600 ft
- IATA code : SMV


LSZS - Samedan

CURRENT METAR :
  • 250750Z VRB02KT 9999 FEW035 BKN060 14/10 Q1019 RMK E TL170

EXPIRED METARs :
  • 250720Z VRB01KT 9999 FEW035 SCT060 14/10 Q1019 RMK D TL170
  • 250650Z VRB02KT 9999 FEW035 SCT060 12/10 Q1019 RMK C TL170
  • 250620Z VRB01KT 9999 FEW035 SCT060 11/09 Q1019 RMK B TL170
  • 250550Z VRB02KT 9999 FEW014 SCT070 09/09 Q1019 RMK A TL170
  • 250520Z AUTO VRB02KT 9999 OVC009 OVC011 07/07 Q1019
  • 250450Z AUTO VRB02KT 9999 FEW011 06/06 Q1019
  • 250420Z AUTO VRB02KT 9999 BKN012 07/07 Q1019
  • 250350Z AUTO 17001KT 9999 OVC012 05/05 Q1019
  • 250320Z AUTO 19002KT 8000 BKN012 05/05 Q1019

TAF TAF LSZS
Valid from the 25 at 06:00 until the 25 at 15:00 UTC


250525Z 2506/2515 VRB02KT 9999 FEW011 TX17/2512Z
PROB40
TEMPO 2511/2515 SHRA FEW050TCU
PROB30
TEMPO 2512/2515 20015G27KT 4000 TSRA FEW050CB
ATIS : +41 81 834 93 24



MET'MAP, your aeronautical weather chart ! - Copyright ORBIFLY December 2007 - Disclaimer

ORBIFLY MET'MAP TEAM :

Programming & Development : Alexandra Zaïnal
Original concept : Baudouin d'Aumeries
Technical & hardware support : Manuel Goepfert
Assistance : Marc-Olivier Méhu




SOURCES & CREDITS :

   NOAA